UBBB/BAK METAR and TAF weather

Enter ICAO airport designator
Station Type Date Time Source
UBBB METAR 2019/12/13 17:00 UTC NOAA

UBBB 131700Z 13008KT 9999 OVC020 10/09 Q1018 R16/290055 R17/290050 NOSIG


Station Type Date Time Source
UBBB Decoded METAR 2019/12/13 17:00 UTC NOAA

Baku / Bine Airport, Azerbaijan (UBBB) 40-27N 050-04E -1M
Dec 13, 2019 - 12:00 PM EST / 2019.12.13 1700 UTC
Wind: from the SE (130 degrees) at 9 MPH (8 KT):0
Visibility: greater than 7 mile(s):0
Sky conditions: overcast
Temperature: 50 F (10 C)
Dew Point: 48 F (9 C)
Relative Humidity: 93%
Pressure (altimeter): 30.06 in. Hg (1018 hPa)
ob: UBBB 131700Z 13008KT 9999 OVC020 10/09 Q1018 R16/290055 R17/290050 NOSIG
cycle: 17

Station Type Date Time Source
UBBB TAF 2019/12/13 12:09 UTC NOAA

TAF COR TAF COR UBBB 131107Z 1312/1412 15012KT 6000 SCT010 BKN025 TX10/1312Z TN06/1402Z
TEMPO 1312/1318 11010KT 3000 -RA BKN007 OVC020
TEMPO 1318/1324 3000 -RA BR BKN010

Example: see airport list